Wetterdaten: Woche 29.02.16 - 06.03.16 (KW9)
Datum Zeit Temperatur Luftfeuchte Luftdruck Niederschlag Windrichtung Sonnenschein Solar Wind
29.02.2016 00:00 1,3 C 94 % 1009,3 hPa 0,0 l/m O-NO 0,00 h 0 W/m 15,0 km/h (3 Bft)
29.02.2016 01:00 1,3 C 94 % 1009,4 hPa 0,0 l/m NO 0,00 h 0 W/m 13,4 km/h (3 Bft)
29.02.2016 02:00 1,4 C 95 % 1009,1 hPa 0,0 l/m NO 0,00 h 0 W/m 16,9 km/h (3 Bft)
29.02.2016 03:00 1,7 C 96 % 1008,6 hPa 0,0 l/m NO 0,00 h 0 W/m 16,0 km/h (3 Bft)
29.02.2016 04:00 1,8 C 96 % 1008,3 hPa 0,0 l/m NO 0,00 h 0 W/m 17,6 km/h (3 Bft)
29.02.2016 05:00 1,6 C 97 % 1008,2 hPa 0,0 l/m N-NO 0,00 h 0 W/m 19,2 km/h (3 Bft)
29.02.2016 06:00 1,6 C 97 % 1008,0 hPa 0,0 l/m N-NO 0,00 h 0 W/m 16,5 km/h (3 Bft)
29.02.2016 07:00 1,7 C 97 % 1008,1 hPa 0,0 l/m N-NO 0,00 h 6 W/m 16,8 km/h (3 Bft)
29.02.2016 08:00 1,8 C 97 % 1008,6 hPa 0,0 l/m N-NO 0,00 h 10 W/m 16,2 km/h (3 Bft)
29.02.2016 09:00 2,0 C 97 % 1008,9 hPa 0,0 l/m N-NO 0,00 h 17 W/m 16,1 km/h (3 Bft)
29.02.2016 10:00 2,3 C 97 % 1009,2 hPa 0,2 l/m N-NO 0,00 h 20 W/m 13,3 km/h (3 Bft)
29.02.2016 11:00 2,6 C 98 % 1009,6 hPa 0,0 l/m N-NO 0,00 h 25 W/m 12,5 km/h (3 Bft)
29.02.2016 12:00 2,4 C 98 % 1009,9 hPa 0,2 l/m N 0,00 h 29 W/m 16,0 km/h (3 Bft)
29.02.2016 13:00 2,1 C 98 % 1009,9 hPa 0,6 l/m N 0,00 h 34 W/m 14,0 km/h (3 Bft)
29.02.2016 14:00 1,3 C 97 % 1010,3 hPa 1,0 l/m N-NW 0,00 h 46 W/m 10,8 km/h (2 Bft)
29.02.2016 15:00 0,9 C 97 % 1011,0 hPa 1,6 l/m N-NW 0,00 h 39 W/m 8,0 km/h (2 Bft)
29.02.2016 16:00 0,7 C 97 % 1011,8 hPa 1,2 l/m N-NW 0,00 h 27 W/m 7,9 km/h (2 Bft)
29.02.2016 17:00 0,6 C 97 % 1012,8 hPa 1,0 l/m N 0,00 h 9 W/m 8,2 km/h (2 Bft)
29.02.2016 18:00 0,3 C 98 % 1014,2 hPa 1,0 l/m N-NW 0,00 h 0 W/m 8,2 km/h (2 Bft)
29.02.2016 19:00 0,1 C 97 % 1015,1 hPa 1,0 l/m N-NW 0,00 h 0 W/m 4,0 km/h (1 Bft)
29.02.2016 20:00 -0,1 C 98 % 1015,9 hPa 1,0 l/m N 0,00 h 0 W/m 0,0 km/h (0 Bft)
29.02.2016 21:00 -0,5 C 98 % 1016,8 hPa 0,6 l/m N 0,00 h 0 W/m 0,0 km/h (0 Bft)
29.02.2016 22:00 -0,8 C 98 % 1017,5 hPa 0,4 l/m N 0,00 h 0 W/m 0,0 km/h (0 Bft)
29.02.2016 23:00 -1,0 C 97 % 1018,0 hPa 0,8 l/m N 0,00 h 0 W/m 0,0 km/h (0 Bft)
01.03.2016 00:00 -1,3 C 97 % 1018,3 hPa 0,2 l/m N 0,00 h 0 W/m 0,0 km/h (0 Bft)
01.03.2016 01:00 -1,5 C 97 % 1018,6 hPa 0,0 l/m N 0,00 h 0 W/m 0,0 km/h (0 Bft)
01.03.2016 02:00 -1,5 C 97 % 1019,0 hPa 0,0 l/m N 0,00 h 0 W/m 0,0 km/h (0 Bft)
01.03.2016 03:00 -1,4 C 97 % 1019,0 hPa 0,0 l/m N 0,00 h 0 W/m 0,0 km/h (0 Bft)
01.03.2016 04:00 -1,4 C 97 % 1019,4 hPa 0,0 l/m N 0,00 h 0 W/m 0,0 km/h (0 Bft)
01.03.2016 05:00 -1,4 C 96 % 1020,1 hPa 0,2 l/m N 0,00 h 0 W/m 0,0 km/h (0 Bft)
01.03.2016 06:00 -1,4 C 97 % 1020,7 hPa 0,4 l/m N 0,00 h 0 W/m 0,0 km/h (0 Bft)
01.03.2016 07:00 -1,4 C 97 % 1021,2 hPa 0,6 l/m N 0,00 h 8 W/m 0,0 km/h (0 Bft)
01.03.2016 08:00 -1,2 C 97 % 1021,8 hPa 0,4 l/m N 0,00 h 15 W/m 0,0 km/h (0 Bft)
01.03.2016 09:00 -0,7 C 97 % 1022,0 hPa 0,0 l/m N 0,00 h 25 W/m 0,0 km/h (0 Bft)
01.03.2016 10:00 -0,2 C 97 % 1021,9 hPa 0,0 l/m N 0,00 h 57 W/m 0,0 km/h (0 Bft)
01.03.2016 11:00 0,5 C 96 % 1022,1 hPa 0,0 l/m SW 0,00 h 129 W/m 7,8 km/h (2 Bft)
01.03.2016 12:00 1,1 C 95 % 1021,6 hPa 0,0 l/m W-SW 0,00 h 166 W/m 11,6 km/h (2 Bft)
01.03.2016 13:00 1,4 C 94 % 1020,8 hPa 0,0 l/m SW 0,00 h 201 W/m 10,6 km/h (2 Bft)
01.03.2016 14:00 1,4 C 95 % 1020,2 hPa 0,0 l/m SW 0,67 h 274 W/m 13,3 km/h (3 Bft)
01.03.2016 15:00 1,4 C 93 % 1020,0 hPa 0,0 l/m W-SW 0,17 h 142 W/m 17,7 km/h (3 Bft)
01.03.2016 16:00 1,4 C 92 % 1019,5 hPa 0,0 l/m W-SW 0,08 h 90 W/m 16,2 km/h (3 Bft)
01.03.2016 17:00 1,1 C 93 % 1019,0 hPa 0,0 l/m SW 0,17 h 46 W/m 9,8 km/h (2 Bft)
01.03.2016 18:00 0,7 C 95 % 1018,6 hPa 0,0 l/m SW 0,00 h 0 W/m 12,4 km/h (3 Bft)
01.03.2016 19:00 0,7 C 95 % 1018,2 hPa 0,0 l/m SW 0,00 h 0 W/m 15,6 km/h (3 Bft)
01.03.2016 20:00 1,0 C 96 % 1017,7 hPa 0,0 l/m SW 0,00 h 0 W/m 15,8 km/h (3 Bft)
01.03.2016 21:00 1,1 C 96 % 1017,7 hPa 0,0 l/m W-SW 0,00 h 0 W/m 13,6 km/h (3 Bft)
01.03.2016 22:00 0,8 C 96 % 1017,2 hPa 0,4 l/m SW 0,00 h 0 W/m 21,0 km/h (4 Bft)
01.03.2016 23:00 0,7 C 96 % 1016,6 hPa 0,4 l/m SW 0,00 h 0 W/m 14,5 km/h (3 Bft)
02.03.2016 00:00 0,7 C 97 % 1015,6 hPa 0,2 l/m SW 0,00 h 0 W/m 19,0 km/h (3 Bft)
02.03.2016 01:00 0,9 C 97 % 1014,6 hPa 0,0 l/m W-SW 0,00 h 0 W/m 26,3 km/h (4 Bft)
02.03.2016 02:00 1,2 C 97 % 1013,9 hPa 0,0 l/m W-SW 0,00 h 0 W/m 24,7 km/h (4 Bft)
02.03.2016 03:00 1,1 C 97 % 1013,2 hPa 0,0 l/m W-SW 0,00 h 0 W/m 18,5 km/h (3 Bft)
02.03.2016 04:00 1,3 C 98 % 1012,5 hPa 0,0 l/m W-SW 0,00 h 0 W/m 21,4 km/h (4 Bft)
02.03.2016 05:00 1,7 C 98 % 1012,0 hPa 0,0 l/m SW 0,00 h 0 W/m 21,7 km/h (4 Bft)
02.03.2016 06:00 1,7 C 98 % 1011,1 hPa 0,0 l/m SW 0,00 h 0 W/m 17,2 km/h (3 Bft)
02.03.2016 07:00 1,8 C 98 % 1010,2 hPa 0,0 l/m SW 0,00 h 14 W/m 16,4 km/h (3 Bft)
02.03.2016 08:00 2,2 C 98 % 1009,3 hPa 0,0 l/m S-SW 0,00 h 47 W/m 16,4 km/h (3 Bft)
02.03.2016 09:00 2,9 C 98 % 1008,1 hPa 0,0 l/m SW 0,00 h 77 W/m 13,8 km/h (3 Bft)
02.03.2016 10:00 4,0 C 96 % 1006,7 hPa 0,0 l/m W-SW 0,00 h 123 W/m 20,6 km/h (4 Bft)
02.03.2016 11:00 4,9 C 94 % 1005,7 hPa 0,0 l/m W-SW 0,00 h 124 W/m 20,4 km/h (4 Bft)
02.03.2016 12:00 5,5 C 93 % 1004,3 hPa 0,0 l/m SW 0,00 h 158 W/m 16,2 km/h (3 Bft)
02.03.2016 13:00 5,8 C 94 % 1002,3 hPa 0,0 l/m SW 0,00 h 105 W/m 17,6 km/h (3 Bft)
02.03.2016 14:00 5,8 C 94 % 1000,5 hPa 0,2 l/m SW 0,00 h 43 W/m 15,3 km/h (3 Bft)
02.03.2016 15:00 6,0 C 95 % 999,3 hPa 0,0 l/m SW 0,00 h 21 W/m 18,6 km/h (3 Bft)
02.03.2016 16:00 4,8 C 94 % 1000,1 hPa 3,0 l/m NW 0,00 h 22 W/m 25,2 km/h (4 Bft)
02.03.2016 17:00 2,3 C 94 % 1001,9 hPa 0,8 l/m N-NW 0,00 h 10 W/m 20,1 km/h (4 Bft)
02.03.2016 18:00 1,1 C 95 % 1004,3 hPa 1,2 l/m NW 0,00 h 0 W/m 6,8 km/h (2 Bft)
02.03.2016 19:00 0,8 C 96 % 1004,8 hPa 0,2 l/m W-SW 0,00 h 0 W/m 13,4 km/h (3 Bft)
02.03.2016 20:00 0,7 C 97 % 1004,7 hPa 0,0 l/m SW 0,00 h 0 W/m 10,9 km/h (2 Bft)
02.03.2016 21:00 0,6 C 97 % 1004,0 hPa 0,0 l/m W-SW 0,00 h 0 W/m 17,0 km/h (3 Bft)
02.03.2016 22:00 0,3 C 96 % 1003,6 hPa 0,0 l/m SW 0,00 h 0 W/m 12,2 km/h (2 Bft)
02.03.2016 23:00 0,2 C 96 % 1002,8 hPa 0,0 l/m SW 0,00 h 0 W/m 12,8 km/h (3 Bft)
03.03.2016 00:00 0,2 C 97 % 1002,4 hPa 0,0 l/m SW 0,00 h 0 W/m 14,6 km/h (3 Bft)
03.03.2016 01:00 0,5 C 97 % 1002,7 hPa 0,0 l/m SW 0,00 h 0 W/m 12,3 km/h (3 Bft)
03.03.2016 02:00 0,4 C 96 % 1003,7 hPa 0,0 l/m W-SW 0,00 h 0 W/m 13,6 km/h (3 Bft)
03.03.2016 03:00 0,2 C 96 % 1003,6 hPa 0,0 l/m W-SW 0,00 h 0 W/m 18,5 km/h (3 Bft)
03.03.2016 04:00 0,0 C 95 % 1003,4 hPa 0,0 l/m W-SW 0,00 h 0 W/m 17,4 km/h (3 Bft)
03.03.2016 05:00 0,1 C 93 % 1003,6 hPa 0,0 l/m W-SW 0,00 h 0 W/m 15,3 km/h (3 Bft)
03.03.2016 06:00 -0,2 C 93 % 1003,4 hPa 0,0 l/m SW 0,00 h 0 W/m 8,0 km/h (2 Bft)
03.03.2016 07:00 -0,4 C 95 % 1003,4 hPa 0,0 l/m SW 0,00 h 17 W/m 11,9 km/h (2 Bft)
03.03.2016 08:00 -0,4 C 95 % 1003,1 hPa 0,0 l/m SW 0,00 h 62 W/m 16,6 km/h (3 Bft)
03.03.2016 09:00 0,1 C 91 % 1002,3 hPa 0,0 l/m W-SW 0,00 h 147 W/m 16,1 km/h (3 Bft)
03.03.2016 10:00 1,2 C 88 % 1002,0 hPa 0,0 l/m SW 0,42 h 297 W/m 16,6 km/h (3 Bft)
03.03.2016 11:00 2,3 C 85 % 1002,0 hPa 0,0 l/m SW 0,17 h 234 W/m 22,4 km/h (4 Bft)
03.03.2016 12:00 2,9 C 83 % 1001,8 hPa 0,0 l/m SW 0,17 h 253 W/m 22,4 km/h (4 Bft)
03.03.2016 13:00 2,8 C 86 % 1000,9 hPa 0,0 l/m W-SW 0,17 h 215 W/m 22,0 km/h (4 Bft)
03.03.2016 14:00 2,1 C 92 % 1000,9 hPa 0,0 l/m W-SW 0,00 h 85 W/m 18,2 km/h (3 Bft)
03.03.2016 15:00 1,6 C 95 % 1001,2 hPa 0,2 l/m W-SW 0,00 h 101 W/m 15,8 km/h (3 Bft)
03.03.2016 16:00 1,8 C 96 % 1001,5 hPa 0,0 l/m SW 0,08 h 51 W/m 15,0 km/h (3 Bft)
03.03.2016 17:00 1,4 C 97 % 1002,1 hPa 0,0 l/m SW 0,00 h 8 W/m 11,4 km/h (2 Bft)
03.03.2016 18:00 1,2 C 97 % 1003,1 hPa 0,0 l/m SW 0,00 h 6 W/m 5,6 km/h (1 Bft)
03.03.2016 19:00 0,9 C 97 % 1004,3 hPa 0,6 l/m W-NW 0,00 h 0 W/m 12,5 km/h (3 Bft)
03.03.2016 20:00 0,7 C 97 % 1005,3 hPa 0,0 l/m W-NW 0,00 h 0 W/m 10,2 km/h (2 Bft)
03.03.2016 21:00 0,4 C 97 % 1006,3 hPa 0,0 l/m W 0,00 h 0 W/m 9,5 km/h (2 Bft)
03.03.2016 22:00 0,4 C 97 % 1007,1 hPa 0,0 l/m W 0,00 h 0 W/m 5,5 km/h (1 Bft)
03.03.2016 23:00 0,4 C 97 % 1007,5 hPa 0,0 l/m W 0,00 h 0 W/m 4,5 km/h (1 Bft)
04.03.2016 00:00 0,3 C 97 % 1007,7 hPa 0,0 l/m W 0,00 h 0 W/m 6,6 km/h (2 Bft)
04.03.2016 01:00 0,2 C 97 % 1007,9 hPa 0,0 l/m W 0,00 h 0 W/m 8,6 km/h (2 Bft)
04.03.2016 02:00 0,2 C 97 % 1007,9 hPa 0,0 l/m W 0,00 h 0 W/m 4,5 km/h (1 Bft)
04.03.2016 03:00 0,3 C 97 % 1007,8 hPa 0,0 l/m W 0,00 h 0 W/m 1,6 km/h (1 Bft)
04.03.2016 04:00 0,3 C 97 % 1007,4 hPa 0,0 l/m W-SW 0,00 h 0 W/m 8,2 km/h (2 Bft)
04.03.2016 05:00 -0,5 C 96 % 1006,8 hPa 0,0 l/m SW 0,00 h 0 W/m 8,4 km/h (2 Bft)
04.03.2016 06:00 -1,2 C 96 % 1006,3 hPa 0,0 l/m SW 0,00 h 5 W/m 8,6 km/h (2 Bft)
04.03.2016 07:00 -1,4 C 96 % 1005,5 hPa 0,0 l/m SW 0,17 h 39 W/m 2,4 km/h (1 Bft)
04.03.2016 08:00 -0,9 C 96 % 1004,6 hPa 0,0 l/m S-SW 0,92 h 167 W/m 1,9 km/h (1 Bft)
04.03.2016 09:00 0,8 C 94 % 1003,7 hPa 0,0 l/m S 1,00 h 299 W/m 9,9 km/h (2 Bft)
04.03.2016 10:00 2,2 C 89 % 1002,6 hPa 0,0 l/m S 0,33 h 268 W/m 12,6 km/h (3 Bft)
04.03.2016 11:00 3,1 C 83 % 1001,8 hPa 0,0 l/m S 0,17 h 279 W/m 12,8 km/h (3 Bft)
04.03.2016 12:00 4,3 C 79 % 1000,4 hPa 0,0 l/m S-SO 0,00 h 234 W/m 9,8 km/h (2 Bft)
04.03.2016 13:00 5,0 C 75 % 999,7 hPa 0,0 l/m S 0,00 h 203 W/m 12,2 km/h (2 Bft)
04.03.2016 14:00 5,4 C 74 % 998,7 hPa 0,0 l/m SO 0,00 h 116 W/m 8,7 km/h (2 Bft)
04.03.2016 15:00 5,1 C 75 % 998,4 hPa 0,0 l/m S-SW 0,00 h 61 W/m 6,2 km/h (2 Bft)
04.03.2016 16:00 5,1 C 78 % 998,1 hPa 0,0 l/m N 0,00 h 46 W/m 0,1 km/h (0 Bft)
04.03.2016 17:00 4,8 C 78 % 998,2 hPa 0,0 l/m O 0,00 h 12 W/m 0,8 km/h (0 Bft)
04.03.2016 18:00 4,5 C 82 % 997,7 hPa 0,0 l/m N 0,00 h 0 W/m 0,0 km/h (0 Bft)
04.03.2016 19:00 3,8 C 87 % 997,2 hPa 0,0 l/m N 0,00 h 0 W/m 0,4 km/h (0 Bft)
04.03.2016 20:00 3,5 C 88 % 997,0 hPa 0,0 l/m O 0,00 h 0 W/m 0,7 km/h (0 Bft)
04.03.2016 21:00 3,3 C 90 % 996,5 hPa 0,0 l/m O-NO 0,00 h 0 W/m 3,9 km/h (1 Bft)
04.03.2016 22:00 3,1 C 92 % 996,0 hPa 0,0 l/m N 0,00 h 0 W/m 0,0 km/h (0 Bft)
04.03.2016 23:00 2,7 C 92 % 995,6 hPa 0,0 l/m N-NW 0,00 h 0 W/m 4,8 km/h (1 Bft)
05.03.2016 00:00 2,6 C 93 % 995,6 hPa 0,0 l/m N-NW 0,00 h 0 W/m 2,8 km/h (1 Bft)
05.03.2016 01:00 2,3 C 93 % 995,5 hPa 0,0 l/m N 0,00 h 0 W/m 1,1 km/h (0 Bft)
05.03.2016 02:00 1,9 C 93 % 994,7 hPa 0,0 l/m N 0,00 h 0 W/m 0,0 km/h (0 Bft)
05.03.2016 03:00 1,5 C 94 % 993,8 hPa 0,0 l/m N 0,00 h 0 W/m 0,0 km/h (0 Bft)
05.03.2016 04:00 1,3 C 94 % 993,5 hPa 0,0 l/m N 0,00 h 0 W/m 0,0 km/h (0 Bft)
05.03.2016 05:00 1,1 C 95 % 994,4 hPa 0,0 l/m N-NW 0,00 h 0 W/m 2,3 km/h (1 Bft)
05.03.2016 06:00 0,7 C 95 % 994,6 hPa 0,0 l/m W-NW 0,00 h 0 W/m 6,7 km/h (2 Bft)
05.03.2016 07:00 0,8 C 96 % 994,7 hPa 0,0 l/m SW 0,00 h 14 W/m 5,3 km/h (1 Bft)
05.03.2016 08:00 1,3 C 96 % 995,2 hPa 0,0 l/m SW 0,00 h 23 W/m 3,2 km/h (1 Bft)
05.03.2016 09:00 1,9 C 97 % 995,3 hPa 0,4 l/m SW 0,00 h 30 W/m 3,2 km/h (1 Bft)
05.03.2016 10:00 2,2 C 97 % 995,6 hPa 0,8 l/m SW 0,00 h 31 W/m 5,2 km/h (1 Bft)
05.03.2016 11:00 1,7 C 97 % 995,7 hPa 1,2 l/m SW 0,00 h 42 W/m 8,7 km/h (2 Bft)
05.03.2016 12:00 1,0 C 97 % 995,6 hPa 1,6 l/m SW 0,00 h 42 W/m 4,8 km/h (1 Bft)
05.03.2016 13:00 1,0 C 97 % 995,5 hPa 1,0 l/m SW 0,00 h 53 W/m 1,6 km/h (1 Bft)
05.03.2016 14:00 1,3 C 98 % 995,5 hPa 0,8 l/m SW 0,00 h 45 W/m 3,6 km/h (1 Bft)
05.03.2016 15:00 0,9 C 97 % 995,9 hPa 0,8 l/m SW 0,00 h 32 W/m 2,0 km/h (1 Bft)
05.03.2016 16:00 0,6 C 98 % 996,1 hPa 0,6 l/m N 0,00 h 26 W/m 0,3 km/h (0 Bft)
05.03.2016 17:00 0,5 C 98 % 996,4 hPa 0,6 l/m N 0,00 h 15 W/m 0,8 km/h (0 Bft)
05.03.2016 18:00 0,3 C 98 % 996,7 hPa 0,0 l/m N 0,00 h 5 W/m 0,0 km/h (0 Bft)
05.03.2016 19:00 0,3 C 98 % 996,7 hPa 0,2 l/m N 0,00 h 0 W/m 0,0 km/h (0 Bft)
05.03.2016 20:00 0,3 C 98 % 997,1 hPa 0,0 l/m N 0,00 h 0 W/m 0,0 km/h (0 Bft)
05.03.2016 21:00 0,3 C 98 % 997,3 hPa 0,0 l/m N 0,00 h 0 W/m 0,0 km/h (0 Bft)
05.03.2016 22:00 0,3 C 99 % 997,6 hPa 0,0 l/m N 0,00 h 0 W/m 0,0 km/h (0 Bft)
05.03.2016 23:00 0,4 C 99 % 997,6 hPa 0,0 l/m N 0,00 h 0 W/m 0,0 km/h (0 Bft)
06.03.2016 00:00 0,4 C 99 % 998,0 hPa 0,0 l/m N 0,00 h 0 W/m 0,0 km/h (0 Bft)
06.03.2016 01:00 0,5 C 99 % 998,4 hPa 0,0 l/m SW 0,00 h 0 W/m 6,6 km/h (2 Bft)
06.03.2016 02:00 0,4 C 99 % 998,8 hPa 0,0 l/m SW 0,00 h 0 W/m 8,6 km/h (2 Bft)
06.03.2016 03:00 0,4 C 99 % 998,7 hPa 0,0 l/m SW 0,00 h 0 W/m 9,1 km/h (2 Bft)
06.03.2016 04:00 0,5 C 99 % 999,2 hPa 0,0 l/m W-SW 0,00 h 0 W/m 18,8 km/h (3 Bft)
06.03.2016 05:00 0,4 C 98 % 1000,0 hPa 0,0 l/m W-SW 0,00 h 0 W/m 19,2 km/h (3 Bft)
06.03.2016 06:00 0,2 C 97 % 1000,6 hPa 0,0 l/m W-SW 0,00 h 0 W/m 20,5 km/h (4 Bft)
06.03.2016 07:00 0,3 C 96 % 1001,6 hPa 0,0 l/m W-SW 0,00 h 10 W/m 20,1 km/h (4 Bft)
06.03.2016 08:00 0,3 C 95 % 1002,4 hPa 0,0 l/m W-SW 0,00 h 44 W/m 16,6 km/h (3 Bft)
06.03.2016 09:00 0,8 C 94 % 1002,7 hPa 0,0 l/m W-SW 0,17 h 180 W/m 20,5 km/h (4 Bft)
06.03.2016 10:00 1,5 C 92 % 1003,0 hPa 0,0 l/m SW 0,33 h 277 W/m 24,5 km/h (4 Bft)
06.03.2016 11:00 2,5 C 88 % 1003,0 hPa 0,0 l/m W-SW 0,50 h 320 W/m 20,5 km/h (4 Bft)
06.03.2016 12:00 3,3 C 85 % 1002,6 hPa 0,0 l/m W-SW 0,83 h 543 W/m 26,6 km/h (4 Bft)
06.03.2016 13:00 4,0 C 80 % 1002,3 hPa 0,0 l/m W 0,50 h 452 W/m 22,2 km/h (4 Bft)
06.03.2016 14:00 4,1 C 75 % 1002,2 hPa 0,0 l/m W 0,75 h 331 W/m 22,8 km/h (4 Bft)
06.03.2016 15:00 4,3 C 74 % 1002,1 hPa 0,0 l/m W-SW 0,33 h 215 W/m 23,7 km/h (4 Bft)
06.03.2016 16:00 3,5 C 79 % 1002,3 hPa 0,0 l/m W-SW 0,33 h 154 W/m 22,1 km/h (4 Bft)
06.03.2016 17:00 2,5 C 84 % 1002,4 hPa 0,0 l/m W-SW 0,42 h 79 W/m 17,4 km/h (3 Bft)
06.03.2016 18:00 1,3 C 89 % 1002,8 hPa 0,0 l/m W-SW 0,00 h 6 W/m 14,5 km/h (3 Bft)
06.03.2016 19:00 0,7 C 90 % 1003,3 hPa 0,0 l/m W-SW 0,00 h 0 W/m 10,3 km/h (2 Bft)
06.03.2016 20:00 0,3 C 92 % 1003,8 hPa 0,0 l/m W-SW 0,00 h 0 W/m 7,8 km/h (2 Bft)
06.03.2016 21:00 0,2 C 94 % 1004,1 hPa 0,0 l/m SW 0,00 h 0 W/m 12,1 km/h (2 Bft)
06.03.2016 22:00 -0,2 C 95 % 1004,2 hPa 0,0 l/m SW 0,00 h 0 W/m 8,5 km/h (2 Bft)
06.03.2016 23:00 -0,5 C 94 % 1004,3 hPa 0,0 l/m SW 0,00 h 0 W/m 8,2 km/h (2 Bft)
Min-Datum _ 01.03.16 04.03.16 05.03.16 - - - - 29.02.16
_ Min-Zeit 02:05 14:20 04:15 - - - - 17:55
Minimum _ -1,6 C 71 % 993,2 hPa - - - - 0,0 km/h (0 Bft)
Max-Datum _ 02.03.16 06.03.16 01.03.16 02.03.16 - 01.03.16 06.03.16 06.03.16
_ Max-Zeit 15:35 22:05 11:05 16:10 - 14:00 13:05 12:20
Maximum _ 6,2 C 100 % 1022,3 hPa 3,0 l/m - 0,08 h 766 W/m 38,6 km/h
W-SW (5 Bft)
Durchschnitt _ 1,3 C 94 % 1005,7 hPa #27,6 l/m SW #8:50 h 103 W/m 10,5 km/h (2 Bft)